sensor_id;sensor_type;location;lat;lon;timestamp;pressure;altitude;pressure_sealevel;temperature;humidity
36254;BME280;22291;52.250;21.228;2023-05-20T00:01:44;101408.57;;;13.43;85.23
36254;BME280;22291;52.250;21.228;2023-05-20T00:04:10;101405.92;;;13.40;85.16
36254;BME280;22291;52.250;21.228;2023-05-20T00:06:36;101400.78;;;13.39;85.16
36254;BME280;22291;52.250;21.228;2023-05-20T00:09:02;101401.08;;;13.37;85.19
36254;BME280;22291;52.250;21.228;2023-05-20T00:11:28;101405.75;;;13.34;85.14
36254;BME280;22291;52.250;21.228;2023-05-20T00:13:54;101399.25;;;13.33;85.10
36254;BME280;22291;52.250;21.228;2023-05-20T00:16:20;101394.65;;;13.31;85.06
36254;BME280;22291;52.250;21.228;2023-05-20T00:18:47;101393.59;;;13.29;85.05
36254;BME280;22291;52.250;21.228;2023-05-20T00:21:13;101395.24;;;13.27;85.03
36254;BME280;22291;52.250;21.228;2023-05-20T00:23:39;101392.03;;;13.25;85.05
36254;BME280;22291;52.250;21.228;2023-05-20T00:26:05;101387.45;;;13.23;84.97
36254;BME280;22291;52.250;21.228;2023-05-20T00:28:31;101392.39;;;13.21;85.07
36254;BME280;22291;52.250;21.228;2023-05-20T00:30:57;101385.39;;;13.18;85.18
36254;BME280;22291;52.250;21.228;2023-05-20T00:33:23;101382.44;;;13.14;85.18
36254;BME280;22291;52.250;21.228;2023-05-20T00:35:49;101382.50;;;13.12;85.16
36254;BME280;22291;52.250;21.228;2023-05-20T00:38:15;101380.08;;;13.10;85.23
36254;BME280;22291;52.250;21.228;2023-05-20T00:40:41;101379.31;;;13.07;85.11
36254;BME280;22291;52.250;21.228;2023-05-20T00:43:08;101380.97;;;13.05;85.13
36254;BME280;22291;52.250;21.228;2023-05-20T00:45:36;101376.45;;;13.01;85.16
36254;BME280;22291;52.250;21.228;2023-05-20T00:48:04;101377.28;;;12.99;85.27
36254;BME280;22291;52.250;21.228;2023-05-20T00:50:31;101374.62;;;12.96;85.42
36254;BME280;22291;52.250;21.228;2023-05-20T00:52:57;101371.44;;;12.92;85.32
36254;BME280;22291;52.250;21.228;2023-05-20T00:55:24;101374.75;;;12.88;85.22
36254;BME280;22291;52.250;21.228;2023-05-20T00:57:51;101369.37;;;12.86;85.46
36254;BME280;22291;52.250;21.228;2023-05-20T01:00:19;101376.48;;;12.82;85.43
36254;BME280;22291;52.250;21.228;2023-05-20T01:02:45;101377.34;;;12.80;85.36
36254;BME280;22291;52.250;21.228;2023-05-20T01:05:12;101375.48;;;12.78;85.64
36254;BME280;22291;52.250;21.228;2023-05-20T01:07:38;101376.07;;;12.75;85.82
36254;BME280;22291;52.250;21.228;2023-05-20T01:10:05;101377.72;;;12.73;86.04
36254;BME280;22291;52.250;21.228;2023-05-20T01:12:36;101383.71;;;12.73;86.03
36254;BME280;22291;52.250;21.228;2023-05-20T01:15:09;101379.14;;;12.70;86.12
36254;BME280;22291;52.250;21.228;2023-05-20T01:17:39;101385.36;;;12.71;86.15
36254;BME280;22291;52.250;21.228;2023-05-20T01:20:13;101374.56;;;12.68;86.21
36254;BME280;22291;52.250;21.228;2023-05-20T01:22:51;101377.01;;;12.67;86.35
36254;BME280;22291;52.250;21.228;2023-05-20T01:25:21;101381.38;;;12.66;86.33
36254;BME280;22291;52.250;21.228;2023-05-20T01:27:50;101379.22;;;12.65;86.45
36254;BME280;22291;52.250;21.228;2023-05-20T01:30:17;101384.14;;;12.63;86.43
36254;BME280;22291;52.250;21.228;2023-05-20T01:32:51;101382.52;;;12.62;86.62
36254;BME280;22291;52.250;21.228;2023-05-20T01:35:23;101387.16;;;12.62;86.61
36254;BME280;22291;52.250;21.228;2023-05-20T01:37:51;101387.44;;;12.60;86.81
36254;BME280;22291;52.250;21.228;2023-05-20T01:40:18;101390.39;;;12.61;86.79
36254;BME280;22291;52.250;21.228;2023-05-20T01:42:45;101380.89;;;12.61;86.75
36254;BME280;22291;52.250;21.228;2023-05-20T01:45:14;101384.44;;;12.62;86.86
36254;BME280;22291;52.250;21.228;2023-05-20T01:47:40;101386.03;;;12.63;86.91
36254;BME280;22291;52.250;21.228;2023-05-20T01:50:07;101382.02;;;12.60;86.76
36254;BME280;22291;52.250;21.228;2023-05-20T01:52:34;101388.24;;;12.61;86.93
36254;BME280;22291;52.250;21.228;2023-05-20T01:55:00;101382.02;;;12.60;87.00
36254;BME280;22291;52.250;21.228;2023-05-20T01:57:27;101374.11;;;12.61;87.10
36254;BME280;22291;52.250;21.228;2023-05-20T01:59:53;101368.69;;;12.61;87.09
36254;BME280;22291;52.250;21.228;2023-05-20T02:02:19;101367.33;;;12.61;87.11
36254;BME280;22291;52.250;21.228;2023-05-20T02:04:49;101372.22;;;12.62;87.26
36254;BME280;22291;52.250;21.228;2023-05-20T02:07:17;101368.16;;;12.62;87.33
36254;BME280;22291;52.250;21.228;2023-05-20T02:09:45;101363.23;;;12.64;87.39
36254;BME280;22291;52.250;21.228;2023-05-20T02:12:13;101364.58;;;12.64;87.42
36254;BME280;22291;52.250;21.228;2023-05-20T02:14:44;101365.94;;;12.64;87.28
36254;BME280;22291;52.250;21.228;2023-05-20T02:17:16;101362.43;;;12.63;87.25
36254;BME280;22291;52.250;21.228;2023-05-20T02:19:46;101361.88;;;12.64;87.42
36254;BME280;22291;52.250;21.228;2023-05-20T02:22:13;101367.30;;;12.64;87.34
36254;BME280;22291;52.250;21.228;2023-05-20T02:24:39;101362.96;;;12.63;87.45
36254;BME280;22291;52.250;21.228;2023-05-20T02:27:08;101366.50;;;12.63;87.33
36254;BME280;22291;52.250;21.228;2023-05-20T02:29:34;101365.14;;;12.63;87.31
36254;BME280;22291;52.250;21.228;2023-05-20T02:32:01;101369.22;;;12.63;87.38
36254;BME280;22291;52.250;21.228;2023-05-20T02:34:29;101370.58;;;12.63;87.33
36254;BME280;22291;52.250;21.228;2023-05-20T02:36:56;101373.52;;;12.64;87.30
36254;BME280;22291;52.250;21.228;2023-05-20T02:39:22;101369.75;;;12.63;87.34
36254;BME280;22291;52.250;21.228;2023-05-20T02:41:48;101370.86;;;12.62;87.32
36254;BME280;22291;52.250;21.228;2023-05-20T02:44:14;101378.72;;;12.63;87.41
36254;BME280;22291;52.250;21.228;2023-05-20T02:46:41;101373.52;;;12.64;87.51
36254;BME280;22291;52.250;21.228;2023-05-20T02:49:07;101377.03;;;12.65;87.52
36254;BME280;22291;52.250;21.228;2023-05-20T02:51:34;101374.03;;;12.66;87.53
36254;BME280;22291;52.250;21.228;2023-05-20T02:54:00;101375.65;;;12.67;87.63
36254;BME280;22291;52.250;21.228;2023-05-20T02:56:26;101374.80;;;12.69;87.71
36254;BME280;22291;52.250;21.228;2023-05-20T02:58:53;101376.95;;;12.70;87.73
36254;BME280;22291;52.250;21.228;2023-05-20T03:01:19;101377.48;;;12.72;87.75
36254;BME280;22291;52.250;21.228;2023-05-20T03:03:46;101372.56;;;12.74;87.82
36254;BME280;22291;52.250;21.228;2023-05-20T03:06:12;101384.22;;;12.75;87.79
36254;BME280;22291;52.250;21.228;2023-05-20T03:08:38;101385.28;;;12.76;87.80
36254;BME280;22291;52.250;21.228;2023-05-20T03:11:04;101382.83;;;12.77;87.75
36254;BME280;22291;52.250;21.228;2023-05-20T03:13:31;101378.70;;;12.80;87.79
36254;BME280;22291;52.250;21.228;2023-05-20T03:15:57;101376.55;;;12.79;87.82
36254;BME280;22291;52.250;21.228;2023-05-20T03:18:25;101384.63;;;12.82;87.79
36254;BME280;22291;52.250;21.228;2023-05-20T03:20:52;101375.95;;;12.82;87.84
36254;BME280;22291;52.250;21.228;2023-05-20T03:23:18;101377.52;;;12.86;88.01
36254;BME280;22291;52.250;21.228;2023-05-20T03:25:45;101378.88;;;12.86;87.93
36254;BME280;22291;52.250;21.228;2023-05-20T03:28:12;101382.89;;;12.88;87.88
36254;BME280;22291;52.250;21.228;2023-05-20T03:30:38;101384.45;;;12.92;87.97
36254;BME280;22291;52.250;21.228;2023-05-20T03:33:04;101386.58;;;12.95;88.06
36254;BME280;22291;52.250;21.228;2023-05-20T03:35:30;101389.27;;;12.98;88.08
36254;BME280;22291;52.250;21.228;2023-05-20T03:37:57;101389.77;;;13.00;87.94
36254;BME280;22291;52.250;21.228;2023-05-20T03:40:24;101384.61;;;13.01;87.94
36254;BME280;22291;52.250;21.228;2023-05-20T03:42:50;101385.11;;;13.03;88.02
36254;BME280;22291;52.250;21.228;2023-05-20T03:45:17;101387.73;;;13.08;88.09
36254;BME280;22291;52.250;21.228;2023-05-20T03:47:43;101389.59;;;13.10;88.00
36254;BME280;22291;52.250;21.228;2023-05-20T03:50:10;101382.73;;;13.13;87.99
36254;BME280;22291;52.250;21.228;2023-05-20T03:52:37;101383.50;;;13.16;87.83
36254;BME280;22291;52.250;21.228;2023-05-20T03:55:07;101377.77;;;13.17;87.73
36254;BME280;22291;52.250;21.228;2023-05-20T03:57:35;101383.67;;;13.22;87.83
36254;BME280;22291;52.250;21.228;2023-05-20T04:00:03;101392.30;;;13.26;87.82
36254;BME280;22291;52.250;21.228;2023-05-20T04:02:37;101384.88;;;13.30;87.79
36254;BME280;22291;52.250;21.228;2023-05-20T04:05:05;101389.21;;;13.33;87.73
36254;BME280;22291;52.250;21.228;2023-05-20T04:07:35;101392.92;;;13.37;87.78
36254;BME280;22291;52.250;21.228;2023-05-20T04:10:02;101388.75;;;13.42;87.54
36254;BME280;22291;52.250;21.228;2023-05-20T04:12:30;101387.89;;;13.44;87.15
36254;BME280;22291;52.250;21.228;2023-05-20T04:14:58;101384.28;;;13.49;87.32
36254;BME280;22291;52.250;21.228;2023-05-20T04:17:29;101385.83;;;13.53;87.26
36254;BME280;22291;52.250;21.228;2023-05-20T04:19:57;101386.83;;;13.57;87.12
36254;BME280;22291;52.250;21.228;2023-05-20T04:22:26;101381.85;;;13.61;87.01
36254;BME280;22291;52.250;21.228;2023-05-20T04:24:53;101389.67;;;13.66;86.82
36254;BME280;22291;52.250;21.228;2023-05-20T04:27:21;101386.09;;;13.68;86.76
36254;BME280;22291;52.250;21.228;2023-05-20T04:29:48;101391.42;;;13.73;86.74
36254;BME280;22291;52.250;21.228;2023-05-20T04:32:17;101389.39;;;13.78;86.62
36254;BME280;22291;52.250;21.228;2023-05-20T04:34:45;101389.84;;;13.83;86.54
36254;BME280;22291;52.250;21.228;2023-05-20T04:37:13;101392.46;;;13.88;86.47
36254;BME280;22291;52.250;21.228;2023-05-20T04:39:40;101395.30;;;13.94;86.59
36254;BME280;22291;52.250;21.228;2023-05-20T04:42:08;101391.38;;;14.00;86.60
36254;BME280;22291;52.250;21.228;2023-05-20T04:44:34;101388.81;;;14.07;86.50
36254;BME280;22291;52.250;21.228;2023-05-20T04:47:00;101387.22;;;14.17;86.80
36254;BME280;22291;52.250;21.228;2023-05-20T04:49:27;101393.30;;;14.25;86.32
36254;BME280;22291;52.250;21.228;2023-05-20T04:51:56;101388.77;;;14.32;85.94
36254;BME280;22291;52.250;21.228;2023-05-20T04:54:23;101382.59;;;14.40;86.03
36254;BME280;22291;52.250;21.228;2023-05-20T04:56:50;101382.66;;;14.49;85.91
36254;BME280;22291;52.250;21.228;2023-05-20T04:59:17;101381.44;;;14.55;85.75
36254;BME280;22291;52.250;21.228;2023-05-20T05:01:43;101380.47;;;14.62;85.67
36254;BME280;22291;52.250;21.228;2023-05-20T05:04:10;101389.27;;;14.70;85.29
36254;BME280;22291;52.250;21.228;2023-05-20T05:06:36;101383.69;;;14.75;84.64
36254;BME280;22291;52.250;21.228;2023-05-20T05:09:03;101385.18;;;14.82;84.79
36254;BME280;22291;52.250;21.228;2023-05-20T05:11:29;101389.88;;;14.90;84.48
36254;BME280;22291;52.250;21.228;2023-05-20T05:13:56;101392.09;;;14.99;84.87
36254;BME280;22291;52.250;21.228;2023-05-20T05:16:22;101390.72;;;15.10;84.85
36254;BME280;22291;52.250;21.228;2023-05-20T05:18:49;101389.08;;;15.21;84.53
36254;BME280;22291;52.250;21.228;2023-05-20T05:21:16;101391.36;;;15.27;83.72
36254;BME280;22291;52.250;21.228;2023-05-20T05:23:42;101391.14;;;15.35;83.63
36254;BME280;22291;52.250;21.228;2023-05-20T05:26:08;101384.66;;;15.42;83.09
36254;BME280;22291;52.250;21.228;2023-05-20T05:28:34;101387.67;;;15.52;82.84
36254;BME280;22291;52.250;21.228;2023-05-20T05:31:00;101387.64;;;15.63;82.95
36254;BME280;22291;52.250;21.228;2023-05-20T05:33:27;101382.11;;;15.75;82.73
36254;BME280;22291;52.250;21.228;2023-05-20T05:35:54;101384.20;;;15.89;82.12
36254;BME280;22291;52.250;21.228;2023-05-20T05:38:22;101383.58;;;16.01;81.59
36254;BME280;22291;52.250;21.228;2023-05-20T05:40:48;101387.58;;;16.12;81.49
36254;BME280;22291;52.250;21.228;2023-05-20T05:43:15;101388.82;;;16.26;80.98
36254;BME280;22291;52.250;21.228;2023-05-20T05:45:41;101387.52;;;16.41;81.10
36254;BME280;22291;52.250;21.228;2023-05-20T05:48:08;101391.38;;;16.49;79.94
36254;BME280;22291;52.250;21.228;2023-05-20T05:50:34;101394.50;;;16.62;80.01
36254;BME280;22291;52.250;21.228;2023-05-20T05:53:00;101387.32;;;16.81;80.12
36254;BME280;22291;52.250;21.228;2023-05-20T05:55:26;101389.64;;;16.94;79.64
36254;BME280;22291;52.250;21.228;2023-05-20T05:57:53;101386.23;;;17.06;78.86
36254;BME280;22291;52.250;21.228;2023-05-20T06:00:20;101389.43;;;17.16;77.75
36254;BME280;22291;52.250;21.228;2023-05-20T06:02:47;101396.63;;;17.30;78.28
36254;BME280;22291;52.250;21.228;2023-05-20T06:05:14;101393.34;;;17.45;77.78
36254;BME280;22291;52.250;21.228;2023-05-20T06:07:41;101391.68;;;17.53;77.09
36254;BME280;22291;52.250;21.228;2023-05-20T06:10:09;101398.06;;;17.66;76.67
36254;BME280;22291;52.250;21.228;2023-05-20T06:12:36;101398.04;;;17.81;76.76
36254;BME280;22291;52.250;21.228;2023-05-20T06:15:04;101400.94;;;17.99;76.13
36254;BME280;22291;52.250;21.228;2023-05-20T06:17:35;101397.80;;;18.09;75.16
36254;BME280;22291;52.250;21.228;2023-05-20T06:20:03;101398.89;;;18.17;74.47
36254;BME280;22291;52.250;21.228;2023-05-20T06:22:30;101397.12;;;18.27;74.07
36254;BME280;22291;52.250;21.228;2023-05-20T06:24:56;101395.01;;;18.39;74.64
36254;BME280;22291;52.250;21.228;2023-05-20T06:27:24;101394.76;;;18.59;74.63
36254;BME280;22291;52.250;21.228;2023-05-20T06:29:53;101396.17;;;18.78;73.95
36254;BME280;22291;52.250;21.228;2023-05-20T06:32:19;101390.89;;;19.00;73.20
36254;BME280;22291;52.250;21.228;2023-05-20T06:34:45;101384.52;;;19.20;72.91
36254;BME280;22291;52.250;21.228;2023-05-20T06:37:12;101384.54;;;19.39;72.02
36254;BME280;22291;52.250;21.228;2023-05-20T06:39:39;101382.39;;;19.63;71.94
36254;BME280;22291;52.250;21.228;2023-05-20T06:42:05;101382.61;;;19.89;70.95
36254;BME280;22291;52.250;21.228;2023-05-20T06:44:32;101380.48;;;20.10;71.06
36254;BME280;22291;52.250;21.228;2023-05-20T06:46:58;101377.67;;;20.35;69.06
36254;BME280;22291;52.250;21.228;2023-05-20T06:49:24;101380.80;;;20.49;69.37
36254;BME280;22291;52.250;21.228;2023-05-20T06:51:51;101376.52;;;20.70;68.48
36254;BME280;22291;52.250;21.228;2023-05-20T06:54:17;101374.11;;;20.91;67.50
36254;BME280;22291;52.250;21.228;2023-05-20T06:56:43;101366.88;;;21.08;66.96
36254;BME280;22291;52.250;21.228;2023-05-20T06:59:10;101367.19;;;21.29;66.43
36254;BME280;22291;52.250;21.228;2023-05-20T07:01:36;101367.50;;;21.50;65.83
36254;BME280;22291;52.250;21.228;2023-05-20T07:04:03;101360.89;;;21.70;65.62
36254;BME280;22291;52.250;21.228;2023-05-20T07:06:29;101362.95;;;21.93;64.29
36254;BME280;22291;52.250;21.228;2023-05-20T07:08:56;101366.52;;;22.13;63.56
36254;BME280;22291;52.250;21.228;2023-05-20T07:11:23;101365.03;;;22.35;63.47
36254;BME280;22291;52.250;21.228;2023-05-20T07:13:51;101363.34;;;22.60;62.77
36254;BME280;22291;52.250;21.228;2023-05-20T07:16:18;101361.00;;;22.71;61.27
36254;BME280;22291;52.250;21.228;2023-05-20T07:18:45;101362.63;;;22.86;61.11
36254;BME280;22291;52.250;21.228;2023-05-20T07:21:11;101362.18;;;22.93;60.04
36254;BME280;22291;52.250;21.228;2023-05-20T07:23:37;101358.72;;;23.10;60.81
36254;BME280;22291;52.250;21.228;2023-05-20T07:26:03;101348.14;;;23.39;60.08
36254;BME280;22291;52.250;21.228;2023-05-20T07:28:31;101358.00;;;23.66;59.65
36254;BME280;22291;52.250;21.228;2023-05-20T07:30:57;101357.17;;;23.89;59.37
36254;BME280;22291;52.250;21.228;2023-05-20T07:33:25;101356.31;;;24.15;59.03
36254;BME280;22291;52.250;21.228;2023-05-20T07:35:51;101351.91;;;24.28;57.64
36254;BME280;22291;52.250;21.228;2023-05-20T07:38:19;101352.48;;;24.44;56.43
36254;BME280;22291;52.250;21.228;2023-05-20T07:40:45;101353.50;;;24.46;56.12
36254;BME280;22291;52.250;21.228;2023-05-20T07:43:12;101347.34;;;24.59;55.41
36254;BME280;22291;52.250;21.228;2023-05-20T07:45:38;101351.09;;;24.78;55.89
36254;BME280;22291;52.250;21.228;2023-05-20T07:48:05;101345.67;;;24.92;55.11
36254;BME280;22291;52.250;21.228;2023-05-20T07:50:33;101340.02;;;25.02;54.21
36254;BME280;22291;52.250;21.228;2023-05-20T07:52:59;101336.66;;;25.03;52.90
36254;BME280;22291;52.250;21.228;2023-05-20T07:55:25;101332.37;;;25.09;53.20
36254;BME280;22291;52.250;21.228;2023-05-20T07:57:52;101337.48;;;25.27;53.91
36254;BME280;22291;52.250;21.228;2023-05-20T08:00:20;101336.69;;;25.58;54.32
36254;BME280;22291;52.250;21.228;2023-05-20T08:02:46;101325.77;;;25.90;53.09
36254;BME280;22291;52.250;21.228;2023-05-20T08:05:12;101332.23;;;26.20;52.67
36254;BME280;22291;52.250;21.228;2023-05-20T08:07:39;101337.67;;;26.51;52.96
36254;BME280;22291;52.250;21.228;2023-05-20T08:10:07;101341.09;;;26.79;51.52
36254;BME280;22291;52.250;21.228;2023-05-20T08:12:34;101329.98;;;26.83;51.12
36254;BME280;22291;52.250;21.228;2023-05-20T08:15:01;101342.69;;;27.09;50.73
36254;BME280;22291;52.250;21.228;2023-05-20T08:17:27;101342.28;;;27.32;49.46
36254;BME280;22291;52.250;21.228;2023-05-20T08:19:53;101340.89;;;27.47;48.79
36254;BME280;22291;52.250;21.228;2023-05-20T08:22:19;101340.64;;;27.56;48.31
36254;BME280;22291;52.250;21.228;2023-05-20T08:24:48;101343.98;;;27.74;47.52
36254;BME280;22291;52.250;21.228;2023-05-20T08:27:14;101332.88;;;27.74;46.44
36254;BME280;22291;52.250;21.228;2023-05-20T08:29:44;101330.61;;;27.91;47.14
36254;BME280;22291;52.250;21.228;2023-05-20T08:32:10;101329.44;;;27.85;44.96
36254;BME280;22291;52.250;21.228;2023-05-20T08:34:36;101331.81;;;27.87;46.23
36254;BME280;22291;52.250;21.228;2023-05-20T08:37:03;101331.59;;;28.00;46.60
36254;BME280;22291;52.250;21.228;2023-05-20T08:39:29;101329.83;;;28.31;47.20
36254;BME280;22291;52.250;21.228;2023-05-20T08:41:57;101329.34;;;28.77;46.26
36254;BME280;22291;52.250;21.228;2023-05-20T08:44:25;101333.42;;;28.92;45.23
36254;BME280;22291;52.250;21.228;2023-05-20T08:47:01;101331.76;;;29.01;44.08
36254;BME280;22291;52.250;21.228;2023-05-20T08:49:31;101323.67;;;29.14;44.46
36254;BME280;22291;52.250;21.228;2023-05-20T08:52:02;101330.55;;;29.25;43.85
36254;BME280;22291;52.250;21.228;2023-05-20T08:55:06;101324.84;;;29.39;43.81
36254;BME280;22291;52.250;21.228;2023-05-20T08:57:12;101328.73;;;29.49;43.48
36254;BME280;22291;52.250;21.228;2023-05-20T08:59:43;101332.80;;;29.75;41.35
36254;BME280;22291;52.250;21.228;2023-05-20T09:02:14;101316.84;;;29.79;42.84
36254;BME280;22291;52.250;21.228;2023-05-20T09:04:40;101320.85;;;29.94;42.06
36254;BME280;22291;52.250;21.228;2023-05-20T09:07:07;101308.98;;;30.02;42.12
36254;BME280;22291;52.250;21.228;2023-05-20T09:09:34;101317.53;;;30.18;41.78
36254;BME280;22291;52.250;21.228;2023-05-20T09:12:02;101314.11;;;30.34;39.75
36254;BME280;22291;52.250;21.228;2023-05-20T09:14:30;101313.02;;;30.43;41.11
36254;BME280;22291;52.250;21.228;2023-05-20T09:16:57;101311.34;;;30.18;40.56
36254;BME280;22291;52.250;21.228;2023-05-20T09:19:24;101314.56;;;30.02;40.94
36254;BME280;22291;52.250;21.228;2023-05-20T09:21:54;101312.19;;;30.00;41.17
36254;BME280;22291;52.250;21.228;2023-05-20T09:24:24;101306.39;;;30.03;40.48
36254;BME280;22291;52.250;21.228;2023-05-20T09:26:51;101306.77;;;29.89;40.44
36254;BME280;22291;52.250;21.228;2023-05-20T09:29:17;101311.83;;;29.98;40.63
36254;BME280;22291;52.250;21.228;2023-05-20T09:31:46;101304.45;;;30.27;40.77
36254;BME280;22291;52.250;21.228;2023-05-20T09:34:14;101298.64;;;30.45;39.79
36254;BME280;22291;52.250;21.228;2023-05-20T09:36:43;101310.41;;;30.56;39.38
36254;BME280;22291;52.250;21.228;2023-05-20T09:39:13;101310.85;;;30.78;39.56
36254;BME280;22291;52.250;21.228;2023-05-20T09:41:51;101304.25;;;31.04;39.50
36254;BME280;22291;52.250;21.228;2023-05-20T09:44:21;101306.97;;;31.19;38.67
36254;BME280;22291;52.250;21.228;2023-05-20T09:46:50;101304.68;;;30.79;37.81
36254;BME280;22291;52.250;21.228;2023-05-20T09:49:19;101301.50;;;30.65;38.68
36254;BME280;22291;52.250;21.228;2023-05-20T09:51:47;101303.77;;;30.62;38.20
36254;BME280;22291;52.250;21.228;2023-05-20T09:54:17;101302.05;;;30.68;38.33
36254;BME280;22291;52.250;21.228;2023-05-20T09:56:45;101301.50;;;30.41;37.36
36254;BME280;22291;52.250;21.228;2023-05-20T09:59:14;101302.88;;;30.10;36.90
36254;BME280;22291;52.250;21.228;2023-05-20T10:01:43;101296.19;;;30.20;37.93
36254;BME280;22291;52.250;21.228;2023-05-20T10:04:12;101301.93;;;30.51;38.68
36254;BME280;22291;52.250;21.228;2023-05-20T10:06:46;101303.64;;;30.93;37.01
36254;BME280;22291;52.250;21.228;2023-05-20T10:12:23;101286.47;;;31.18;37.11
36254;BME280;22291;52.250;21.228;2023-05-20T10:18:10;101284.60;;;30.99;37.74
36254;BME280;22291;52.250;21.228;2023-05-20T10:20:47;101281.34;;;31.44;37.68
36254;BME280;22291;52.250;21.228;2023-05-20T10:23:21;101290.45;;;31.69;36.00
36254;BME280;22291;52.250;21.228;2023-05-20T10:25:53;101287.05;;;31.97;36.92
36254;BME280;22291;52.250;21.228;2023-05-20T10:28:37;101285.72;;;32.38;36.55
36254;BME280;22291;52.250;21.228;2023-05-20T10:31:17;101281.88;;;32.57;36.31
36254;BME280;22291;52.250;21.228;2023-05-20T10:33:46;101277.61;;;32.44;35.62
36254;BME280;22291;52.250;21.228;2023-05-20T10:36:26;101284.05;;;32.08;35.15
36254;BME280;22291;52.250;21.228;2023-05-20T10:38:57;101285.32;;;31.67;34.75
36254;BME280;22291;52.250;21.228;2023-05-20T10:41:26;101281.32;;;31.24;33.79
36254;BME280;22291;52.250;21.228;2023-05-20T10:44:02;101275.03;;;30.61;34.44
36254;BME280;22291;52.250;21.228;2023-05-20T10:46:30;101275.22;;;30.23;35.59
36254;BME280;22291;52.250;21.228;2023-05-20T10:48:58;101271.56;;;30.14;35.36
36254;BME280;22291;52.250;21.228;2023-05-20T10:51:28;101258.97;;;30.30;36.66
36254;BME280;22291;52.250;21.228;2023-05-20T10:53:56;101260.10;;;30.60;35.69
36254;BME280;22291;52.250;21.228;2023-05-20T10:56:24;101265.75;;;30.68;35.73
36254;BME280;22291;52.250;21.228;2023-05-20T10:58:52;101259.32;;;30.83;35.57
36254;BME280;22291;52.250;21.228;2023-05-20T11:01:25;101265.09;;;30.84;35.69
36254;BME280;22291;52.250;21.228;2023-05-20T11:03:53;101256.55;;;30.95;35.97
36254;BME280;22291;52.250;21.228;2023-05-20T11:06:27;101261.57;;;31.35;35.28
36254;BME280;22291;52.250;21.228;2023-05-20T11:08:54;101248.20;;;31.15;34.25
36254;BME280;22291;52.250;21.228;2023-05-20T11:11:21;101246.47;;;30.53;34.57
36254;BME280;22291;52.250;21.228;2023-05-20T11:13:51;101248.33;;;30.09;35.03
36254;BME280;22291;52.250;21.228;2023-05-20T11:16:19;101237.19;;;30.21;35.31
36254;BME280;22291;52.250;21.228;2023-05-20T11:18:48;101239.47;;;29.87;35.33
36254;BME280;22291;52.250;21.228;2023-05-20T11:21:15;101228.16;;;29.52;35.54
36254;BME280;22291;52.250;21.228;2023-05-20T11:23:41;101230.41;;;29.30;36.45
36254;BME280;22291;52.250;21.228;2023-05-20T11:26:07;101230.95;;;29.67;37.06
36254;BME280;22291;52.250;21.228;2023-05-20T11:28:34;101225.86;;;29.77;36.63
36254;BME280;22291;52.250;21.228;2023-05-20T11:31:01;101217.98;;;29.69;36.81
36254;BME280;22291;52.250;21.228;2023-05-20T11:33:28;101220.94;;;29.89;36.37
36254;BME280;22291;52.250;21.228;2023-05-20T11:35:56;101215.09;;;29.76;36.30
36254;BME280;22291;52.250;21.228;2023-05-20T11:38:22;101218.13;;;29.73;36.60
36254;BME280;22291;52.250;21.228;2023-05-20T11:40:53;101221.02;;;29.97;36.67
36254;BME280;22291;52.250;21.228;2023-05-20T11:43:23;101223.80;;;30.24;36.82
36254;BME280;22291;52.250;21.228;2023-05-20T11:45:55;101219.34;;;30.54;36.86
36254;BME280;22291;52.250;21.228;2023-05-20T11:48:24;101220.64;;;31.05;36.50
36254;BME280;22291;52.250;21.228;2023-05-20T11:50:53;101227.05;;;31.14;35.49
36254;BME280;22291;52.250;21.228;2023-05-20T11:53:21;101226.70;;;31.12;35.29
36254;BME280;22291;52.250;21.228;2023-05-20T11:55:52;101225.23;;;31.35;34.95
36254;BME280;22291;52.250;21.228;2023-05-20T11:58:25;101228.83;;;31.56;35.09
36254;BME280;22291;52.250;21.228;2023-05-20T12:00:56;101226.49;;;31.62;34.30
36254;BME280;22291;52.250;21.228;2023-05-20T12:03:23;101228.00;;;30.95;33.97
36254;BME280;22291;52.250;21.228;2023-05-20T12:05:49;101230.44;;;30.18;34.05
36254;BME280;22291;52.250;21.228;2023-05-20T12:08:16;101227.09;;;29.76;35.36
36254;BME280;22291;52.250;21.228;2023-05-20T12:10:42;101225.69;;;29.57;35.89
36254;BME280;22291;52.250;21.228;2023-05-20T12:13:11;101217.32;;;29.73;36.58
36254;BME280;22291;52.250;21.228;2023-05-20T12:15:39;101220.01;;;30.11;36.56
36254;BME280;22291;52.250;21.228;2023-05-20T12:18:08;101212.55;;;30.43;36.09
36254;BME280;22291;52.250;21.228;2023-05-20T12:20:34;101217.87;;;30.69;35.93
36254;BME280;22291;52.250;21.228;2023-05-20T12:23:01;101211.02;;;30.98;35.05
36254;BME280;22291;52.250;21.228;2023-05-20T12:25:28;101217.86;;;30.81;34.74
36254;BME280;22291;52.250;21.228;2023-05-20T12:27:55;101219.36;;;30.27;34.07
36254;BME280;22291;52.250;21.228;2023-05-20T12:30:22;101212.73;;;29.74;34.86
36254;BME280;22291;52.250;21.228;2023-05-20T12:32:50;101213.77;;;29.41;35.56
36254;BME280;22291;52.250;21.228;2023-05-20T12:35:23;101210.23;;;29.22;36.30
36254;BME280;22291;52.250;21.228;2023-05-20T12:37:53;101219.16;;;29.02;35.69
36254;BME280;22291;52.250;21.228;2023-05-20T12:40:20;101220.39;;;28.56;36.06
36254;BME280;22291;52.250;21.228;2023-05-20T12:42:46;101219.17;;;28.31;36.60
36254;BME280;22291;52.250;21.228;2023-05-20T12:45:13;101209.16;;;28.18;37.12
36254;BME280;22291;52.250;21.228;2023-05-20T12:47:39;101212.16;;;28.12;37.45
36254;BME280;22291;52.250;21.228;2023-05-20T12:50:06;101211.81;;;28.06;37.48